Latest Coastal Weather Observations for Rottnest Island

IDW60701

Issued at 10:53 pm WST Monday 21 May 2018 (issued every 10 minutes, with the page automatically refreshed every 10 minutes)

About coastal observations | Map of coastal stations | Coastal observations for WA | Marine services | Other Formats
Station Details ID: 009193 Name: ROTTNEST ISLAND Lat: -32.01 Lon: 115.50 Height: 43.1 m
Data from the previous 72 hours. | See also: Recent months at Rottnest Island
Date/Time
WST
Temp
°C
Wind Pressure Rain since
9am
mm
Weather Cloud Vis
km
Sea
Height
m
Swell
Dir  Spd
kts
Gust
kts
hPa Trend Height
m
Period
s
Dir
21/10:30pm 19.1 ENE 11 15 1024.4 - - - - - - - - -
21/10:00pm 19.4 ENE 11 15 1024.6 - - - - - - - - -
21/09:30pm 19.5 ENE 9 14 1024.6 - - - - - - - - -
21/09:00pm 19.6 E 10 13 1024.5 - - - - - - - - -
21/08:30pm 19.9 E 10 12 1024.4 - - - - - - - - -
21/08:00pm 20.1 E 11 13 1024.3 - - - - - - - - -
21/07:30pm 20.1 ESE 8 11 1024.2 - - - - - - - - -
21/07:00pm 19.7 ESE 9 10 1023.9 - - - - - - - - -
21/06:30pm 20.1 SSE 9 11 1023.9 - - - - - - - - -
21/06:00pm 19.7 SSE 8 10 1023.8 - - - - - - - - -
21/05:30pm 19.7 SSE 9 10 1023.6 - - - - - - - - -
21/08:00am 17.1 NE 10 14 1027.8 - 0.0 - - - - - - -
21/07:30am 16.7 NE 9 11 1027.6 - 0.0 - - - - - - -
21/07:00am 16.3 ENE 9 12 1027.4 - 0.0 - - - - - - -
21/06:30am 16.5 NE 8 11 1027.1 - 0.0 - - - - - - -
21/06:00am 16.8 NE 8 11 1026.9 - 0.0 - - - - - - -
21/05:30am 16.9 NE 9 12 1026.6 - 0.0 - - - - - - -
21/05:00am 17.1 NE 9 12 1026.3 - 0.0 - - - - - - -
21/04:30am 17.3 NE 9 11 1026.2 - 0.0 - - - - - - -
21/04:00am 17.2 ENE 9 11 1026.1 - 0.0 - - - - - - -
21/03:30am 17.2 ENE 8 11 1026.1 - 0.0 - - - - - - -
21/03:00am 17.2 ENE 9 11 1026.1 - 0.0 - - - - - - -
21/02:30am 16.8 E 8 9 1026.2 - 0.0 - - - - - - -
21/02:00am 17.2 E 10 11 1026.1 - 0.0 - - - - - - -
21/01:30am 17.9 E 9 10 1026.0 - 0.0 - - - - - - -
21/01:00am 17.8 E 8 10 1026.0 - 0.0 - - - - - - -
21/12:30am 17.8 E 9 11 1026.1 - 0.0 - - - - - - -
21/12:00am 18.0 E 8 10 1026.1 - 0.0 - - - - - - -
 
Date/Time
WST
Temp
°C
Wind Pressure Rain since
9am
mm
Weather Cloud Vis
km
Sea
Height
m
Swell
Dir  Spd
kts
Gust
kts
hPa Trend Height
m
Period
s
Dir
20/11:30pm 18.1 E 9 11 1026.3 - 0.0 - - - - - - -
20/11:00pm 18.1 E 8 10 1026.5 - 0.0 - - - - - - -
20/10:30pm 18.4 E 9 11 1026.6 - 0.0 - - - - - - -
20/10:00pm 18.2 E 9 11 1026.7 - 0.0 - - - - - - -
20/09:30pm 18.3 ESE 8 10 1026.9 - 0.0 - - - - - - -
20/09:00pm 18.5 SE 7 11 1026.9 - 0.0 - - - - - - -
20/08:30pm 19.4 SE 10 13 1026.6 - 0.0 - - - - - - -
20/08:00pm 19.2 SSE 10 13 1026.5 - 0.0 - - - - - - -
20/07:30pm 19.6 SSE 9 12 1026.3 - 0.0 - - - - - - -
20/07:00pm 19.0 SSE 9 10 1026.2 - 0.0 - - - - - - -
20/06:30pm 19.1 S 10 11 1026.0 - 0.0 - - - - - - -
20/06:00pm 18.6 S 9 11 1025.8 - 0.0 - - - - - - -
20/05:30pm 18.7 S 9 10 1025.6 - 0.0 - - - - - - -
20/05:00pm 19.2 S 6 7 1025.6 - 0.0 - - - - - - -
20/04:30pm 20.3 S 5 6 1025.6 - 0.0 - - - - - - -
20/04:00pm 20.8 S 5 6 1025.7 - 0.0 - - - - - - -
20/03:30pm 21.0 SSE 6 7 1025.8 - 0.0 - - - - - - -
20/03:00pm 22.2 E 5 7 1026.0 - 0.0 - - - - - - -
20/02:30pm 22.2 E 5 7 1026.1 - 0.0 - - - - - - -
20/02:00pm 21.8 E 6 8 1026.3 - 0.0 - - - - - - -
20/01:30pm 21.6 ENE 6 9 1026.6 - 0.0 - - - - - - -
20/01:00pm 22.0 NE 6 8 1027.0 - 0.0 - - - - - - -
20/12:30pm 21.1 NE 7 9 1027.5 - 0.0 - - - - - - -
20/12:00pm 20.3 NE 9 11 1028.0 - 0.0 - - - - - - -
20/11:30am 19.6 NE 10 12 1028.3 - 0.0 - - - - - - -
20/11:00am 19.0 NE 10 13 1028.5 - 0.0 - - - - - - -
20/10:30am 19.2 NNE 12 16 1028.5 - 0.0 - - - - - - -
20/10:00am 18.9 NE 12 16 1028.6 - 0.0 - - - - - - -
20/09:30am 18.1 NE 12 16 1028.7 - 0.0 - - - - - - -
20/09:00am 17.8 NE 10 14 1028.6 - 0.0 - - - - - - -
20/08:30am 17.0 NE 10 13 1028.4 - 0.0 - - - - - - -
20/08:00am 16.2 NE 10 13 1028.0 - 0.0 - - - - - - -
20/07:30am 15.8 NE 8 11 1027.8 - 0.0 - - - - - - -
20/07:00am 15.5 NE 8 10 1027.4 - 0.0 - - - - - - -
20/06:30am 15.6 NE 8 10 1027.2 - 0.0 - - - - - - -
20/06:00am 15.4 ENE 7 9 1027.1 - 0.0 - - - - - - -
20/05:30am 15.4 ENE 8 10 1026.8 - 0.0 - - - - - - -
20/05:00am 15.2 E 8 9 1026.6 - 0.0 - - - - - - -
20/04:30am 15.4 E 9 11 1026.6 - 0.0 - - - - - - -
20/04:00am 15.8 E 8 10 1026.5 - 0.0 - - - - - - -
20/03:30am 15.6 ENE 7 9 1026.6 - 0.0 - - - - - - -
20/03:00am 16.5 ENE 8 9 1026.5 - 0.0 - - - - - - -
20/02:30am 16.6 ENE 10 11 1026.4 - 0.0 - - - - - - -
20/02:00am 16.4 E 8 9 1026.4 - 0.0 - - - - - - -
20/01:30am 16.6 ENE 8 9 1026.5 - 0.0 - - - - - - -
20/01:00am 16.5 E 8 10 1026.4 - 0.0 - - - - - - -
20/12:30am 16.4 ESE 7 9 1026.7 - 0.0 - - - - - - -
20/12:00am 16.9 E 8 9 1026.8 - 0.0 - - - - - - -
 
Date/Time
WST
Temp
°C
Wind Pressure Rain since
9am
mm
Weather Cloud Vis
km
Sea
Height
m
Swell
Dir  Spd
kts
Gust
kts
hPa Trend Height
m
Period
s
Dir
19/11:30pm 17.3 ESE 7 9 1026.9 - 0.0 - - - - - - -
19/11:00pm 17.5 ESE 8 9 1026.9 - 0.0 - - - - - - -
19/10:30pm 17.5 ESE 7 9 1026.9 - 0.0 - - - - - - -
19/10:00pm 17.5 SE 8 11 1026.9 - 0.0 - - - - - - -
19/09:30pm 18.6 SE 14 19 1026.7 - 0.0 - - - - - - -
19/09:00pm 19.0 SSE 14 18 1026.7 - 0.0 - - - - - - -
19/08:30pm 19.2 SSE 15 19 1026.6 - 0.0 - - - - - - -
19/08:00pm 19.3 SSE 15 19 1026.2 - 0.0 - - - - - - -
19/07:30pm 19.4 SSE 13 16 1026.1 - 0.0 - - - - - - -
19/07:00pm 19.0 S 11 13 1026.0 - 0.0 - - - - - - -
19/06:30pm 18.8 S 11 13 1025.7 - 0.0 - - - - - - -
19/06:00pm 19.0 S 11 13 1025.6 - 0.0 - - - - - - -
19/05:30pm 19.0 S 10 12 1025.5 - 0.0 - - - - - - -
19/05:00pm 19.5 S 7 9 1025.4 - 0.0 - - - - - - -
19/04:30pm 20.0 S 7 8 1025.3 - 0.0 - - - - - - -
19/04:00pm 20.2 SSE 6 7 1025.4 - 0.0 - - - - - - -
19/03:30pm 20.7 SSE 6 8 1025.5 - 0.0 - - - - - - -
19/03:00pm 20.3 SSE 8 9 1025.5 - 0.0 - - - - - - -
19/02:30pm 21.6 ESE 6 9 1025.5 - 0.0 - - - - - - -
19/02:00pm 20.9 E 7 9 1025.7 - 0.0 - - - - - - -
19/01:30pm 20.7 E 7 11 1025.8 - 0.0 - - - - - - -
19/01:00pm 20.9 ENE 7 11 1026.2 - 0.0 - - - - - - -
19/12:30pm 21.1 NE 8 11 1026.5 - 0.0 - - - - - - -
19/12:00pm 20.0 NE 9 14 1026.8 - 0.0 - - - - - - -
19/11:30am 19.0 NE 9 12 1027.3 - 0.0 - - - - - - -
19/11:00am 18.6 ENE 9 13 1027.8 - 0.0 - - - - - - -
19/10:30am 18.1 NE 10 13 1028.0 - 0.0 - - - - - - -
19/10:00am 17.9 NE 10 13 1028.4 - 0.0 - - - - - - -
19/09:30am 17.6 NE 11 16 1028.4 - 0.0 - - - - - - -
19/09:00am 17.1 NE 10 15 1028.5 - 0.0 - - - - - - -
19/08:30am 16.8 NE 9 12 1028.5 - 0.0 - - - - - - -
19/08:00am 16.0 NE 9 13 1028.0 - 0.0 - - - - - - -
19/07:30am 15.7 NE 9 13 1027.6 - 0.0 - - - - - - -
19/07:00am 15.5 NE 11 13 1027.4 - 0.0 - - - - - - -
19/06:30am 15.5 ENE 10 14 1027.3 - 0.0 - - - - - - -
19/06:00am 16.0 ENE 12 15 1027.1 - 0.0 - - - - - - -
19/05:30am 16.1 ENE 11 15 1027.0 - 0.0 - - - - - - -
19/05:00am 16.1 ENE 9 13 1026.8 - 0.0 - - - - - - -
19/04:30am 16.4 ENE 10 13 1026.6 - 0.0 - - - - - - -
19/04:00am 16.2 E 9 11 1026.6 - 0.0 - - - - - - -
19/03:30am 16.2 E 10 11 1026.5 - 0.0 - - - - - - -
19/03:00am 16.7 E 10 11 1026.5 - 0.0 - - - - - - -
19/02:30am 17.0 ESE 8 9 1026.7 - 0.0 - - - - - - -
19/02:00am 17.4 E 7 8 1026.8 - 0.0 - - - - - - -
19/01:30am 17.9 ESE 7 9 1026.6 - 0.0 - - - - - - -
19/01:00am 17.5 ESE 7 10 1026.7 - 0.0 - - - - - - -
19/12:30am 17.8 ESE 7 10 1026.7 - 0.0 - - - - - - -
19/12:00am 18.3 ESE 8 11 1026.9 - 0.0 - - - - - - -
 
Date/Time
WST
Temp
°C
Wind Pressure Rain since
9am
mm
Weather Cloud Vis
km
Sea
Height
m
Swell
Dir  Spd
kts
Gust
kts
hPa Trend Height
m
Period
s
Dir
18/11:30pm 18.0 ESE 7 9 1027.1 - 0.0 - - - - - - -
18/11:00pm 18.4 ESE 7 9 1027.1 - 0.0 - - - - - - -

Other Formats:

Comma delimited format used in spreadsheet applications
http://www.bom.gov.au/fwo/IDW60701/IDW60701.94602.axf

JavaScript Object Notation format (JSON) in row-major order
http://www.bom.gov.au/fwo/IDW60701/IDW60701.94602.json